createdAt,value
2023-03-13T00:02:21.653Z,6.33
2023-03-13T00:12:24.226Z,6.35
2023-03-13T00:22:26.642Z,6.39
2023-03-13T00:32:29.136Z,6.39
2023-03-13T00:42:32.080Z,6.44
2023-03-13T00:52:34.522Z,6.43
2023-03-13T01:02:42.371Z,6.43
2023-03-13T01:12:45.319Z,6.43
2023-03-13T01:22:47.614Z,6.41
2023-03-13T01:32:50.009Z,6.41
2023-03-13T01:42:58.300Z,6.47
2023-03-13T01:53:00.697Z,6.47
2023-03-13T02:03:10.005Z,6.50
2023-03-13T02:13:15.501Z,6.53
2023-03-13T02:23:34.859Z,6.55
2023-03-13T02:33:42.629Z,6.48
2023-03-13T02:43:44.969Z,6.43
2023-03-13T02:53:50.790Z,6.45
2023-03-13T03:03:53.438Z,6.50
2023-03-13T03:13:55.813Z,6.53
2023-03-13T03:23:58.193Z,6.56
2023-03-13T03:34:01.097Z,6.58
2023-03-13T03:44:05.018Z,6.61
2023-03-13T03:54:07.456Z,6.65
2023-03-13T04:04:09.885Z,6.68
2023-03-13T04:14:12.167Z,6.66
2023-03-13T04:24:14.575Z,6.70
2023-03-13T04:34:17.013Z,6.69
2023-03-13T04:44:19.374Z,6.73
2023-03-13T04:54:22.207Z,6.77
2023-03-13T05:04:24.671Z,6.76
2023-03-13T05:14:27.336Z,6.77
2023-03-13T05:24:29.870Z,6.77
2023-03-13T05:34:32.314Z,6.82
2023-03-13T05:44:34.928Z,6.85
2023-03-13T05:54:37.841Z,6.78
2023-03-13T06:04:41.082Z,6.81
2023-03-13T06:14:43.799Z,6.86
2023-03-13T06:24:49.399Z,6.79
2023-03-13T06:34:52.781Z,6.76
2023-03-13T06:44:55.382Z,6.86
2023-03-13T06:54:57.946Z,7.10
2023-03-13T07:05:00.942Z,7.49
2023-03-13T07:15:07.514Z,7.88
2023-03-13T07:25:11.181Z,8.11
2023-03-13T07:35:13.754Z,8.35
2023-03-13T07:45:16.266Z,9.00
2023-03-13T07:55:19.051Z,9.64
2023-03-13T08:05:21.923Z,10.03
2023-03-13T08:15:26.783Z,10.21
2023-03-13T08:25:29.749Z,10.43
2023-03-13T08:35:32.493Z,11.13
2023-03-13T08:45:35.201Z,11.83
2023-03-13T08:55:37.748Z,12.45
2023-03-13T09:05:54.810Z,13.14
2023-03-13T09:16:04.732Z,13.85
2023-03-13T09:26:07.726Z,14.82
2023-03-13T09:36:11.518Z,15.52
2023-03-13T09:46:22.492Z,16.45
2023-03-13T09:56:30.881Z,17.08
2023-03-13T10:06:44.156Z,17.90
2023-03-13T10:17:26.988Z,18.62
2023-03-13T10:27:29.935Z,18.95
2023-03-13T10:37:43.056Z,18.96
2023-03-13T10:47:46.210Z,18.87
2023-03-13T10:58:07.073Z,18.93
2023-03-13T11:08:28.948Z,18.85
2023-03-13T11:18:45.001Z,18.65
2023-03-13T11:29:17.496Z,18.81
2023-03-13T11:39:42.986Z,19.11
2023-03-13T11:50:01.042Z,19.69
2023-03-13T12:00:33.910Z,20.22
2023-03-13T12:10:47.739Z,20.72
2023-03-13T12:20:56.452Z,21.15
2023-03-13T12:37:24.240Z,21.79
2023-03-13T12:48:01.653Z,21.79
2023-03-13T12:58:36.073Z,23.33
2023-03-13T13:08:47.693Z,23.58
2023-03-13T13:18:52.828Z,24.17
2023-03-13T13:29:12.039Z,24.82
2023-03-13T13:39:40.489Z,24.98
2023-03-13T13:49:56.231Z,25.31
2023-03-13T14:00:22.426Z,25.27
2023-03-13T14:10:41.778Z,25.15
2023-03-13T14:20:50.596Z,24.63
2023-03-13T14:30:57.048Z,24.07
2023-03-13T14:41:00.520Z,23.78
2023-03-13T14:51:22.115Z,23.85
2023-03-13T15:01:31.098Z,23.37
2023-03-13T15:11:37.715Z,22.98
2023-03-13T15:21:41.657Z,22.66
2023-03-13T15:31:45.243Z,22.47
2023-03-13T15:41:48.561Z,22.32
2023-03-13T15:51:51.035Z,22.22
2023-03-13T16:01:53.889Z,21.68
2023-03-13T16:11:56.925Z,21.48
2023-03-13T16:22:00.049Z,20.99
2023-03-13T16:32:03.277Z,20.16
2023-03-13T16:42:06.442Z,19.30
2023-03-13T16:52:15.562Z,18.73
2023-03-13T17:02:20.932Z,18.17
2023-03-13T17:12:24.113Z,17.71
2023-03-13T17:22:27.303Z,17.35
2023-03-13T17:32:31.683Z,16.97
2023-03-13T17:42:34.221Z,16.40
2023-03-13T17:52:36.933Z,15.79
2023-03-13T18:02:39.641Z,15.29
2023-03-13T18:12:42.416Z,14.85
2023-03-13T18:22:45.856Z,14.44
2023-03-13T18:32:48.825Z,14.04
2023-03-13T18:42:52.078Z,13.77
2023-03-13T18:52:56.576Z,13.62
2023-03-13T19:02:59.324Z,13.59
2023-03-13T19:13:02.614Z,13.52
2023-03-13T19:23:05.251Z,13.62
2023-03-13T19:33:07.936Z,15.28
2023-03-13T19:43:10.665Z,14.02
2023-03-13T19:53:13.325Z,12.36
2023-03-13T20:03:16.107Z,12.01
2023-03-13T20:13:19.015Z,11.60
2023-03-13T20:23:22.026Z,11.44
2023-03-13T20:33:24.963Z,11.39
2023-03-13T20:43:28.928Z,11.20
2023-03-13T20:53:31.865Z,11.25
2023-03-13T21:03:36.207Z,11.18
2023-03-13T21:13:39.023Z,10.97
2023-03-13T21:23:41.629Z,10.67
2023-03-13T21:33:45.569Z,10.47
2023-03-13T21:43:48.824Z,10.22
2023-03-13T21:53:51.388Z,10.16
2023-03-13T22:03:54.163Z,10.03
2023-03-13T22:13:57.135Z,9.97
2023-03-13T22:23:59.902Z,9.93
2023-03-13T22:34:03.098Z,9.86
2023-03-13T22:44:06.183Z,9.77
2023-03-13T22:54:09.047Z,9.68
2023-03-13T23:04:12.256Z,9.58
2023-03-13T23:14:14.912Z,9.43
2023-03-13T23:24:17.517Z,9.26
2023-03-13T23:34:22.507Z,9.12
2023-03-13T23:44:25.660Z,9.00
2023-03-13T23:54:28.408Z,8.87
